Map

Track Data

SID SEASON NUMBER BASIN SUBBASIN NAME ISO_TIME NATURE LAT LON WMO_WIND WMO_PRES WMO_AGENCY TRACK_TYPE DIST2LAND LANDFALL IFLAG USA_AGENCY USA_ATCF_ID USA_LAT USA_LON USA_RECORD USA_STATUS USA_WIND USA_PRES USA_SSHS USA_R34_NE USA_R34_SE USA_R34_SW USA_R34_NW USA_R50_NE USA_R50_SE USA_R50_SW USA_R50_NW USA_R64_NE USA_R64_SE USA_R64_SW USA_R64_NW USA_POCI USA_ROCI USA_RMW USA_EYE TOKYO_LAT TOKYO_LON TOKYO_GRADE TOKYO_WIND TOKYO_PRES TOKYO_R50_DIR TOKYO_R50_LONG TOKYO_R50_SHORT TOKYO_R30_DIR TOKYO_R30_LONG TOKYO_R30_SHORT TOKYO_LAND CMA_LAT CMA_LON CMA_CAT CMA_WIND CMA_PRES HKO_LAT HKO_LON HKO_CAT HKO_WIND HKO_PRES NEWDELHI_LAT NEWDELHI_LON NEWDELHI_GRADE NEWDELHI_WIND NEWDELHI_PRES NEWDELHI_CI NEWDELHI_DP NEWDELHI_POCI REUNION_LAT REUNION_LON REUNION_TYPE REUNION_WIND REUNION_PRES REUNION_TNUM REUNION_CI REUNION_RMW REUNION_R34_NE REUNION_R34_SE REUNION_R34_SW REUNION_R34_NW REUNION_R50_NE REUNION_R50_SE REUNION_R50_SW REUNION_R50_NW REUNION_R64_NE REUNION_R64_SE REUNION_R64_SW REUNION_R64_NW BOM_LAT BOM_LON BOM_TYPE BOM_WIND BOM_PRES BOM_TNUM BOM_CI BOM_RMW BOM_R34_NE BOM_R34_SE BOM_R34_SW BOM_R34_NW BOM_R50_NE BOM_R50_SE BOM_R50_SW BOM_R50_NW BOM_R64_NE BOM_R64_SE BOM_R64_SW BOM_R64_NW BOM_ROCI BOM_POCI BOM_EYE BOM_POS_METHOD BOM_PRES_METHOD NADI_LAT NADI_LON NADI_CAT NADI_WIND NADI_PRES WELLINGTON_LAT WELLINGTON_LON WELLINGTON_WIND WELLINGTON_PRES DS824_LAT DS824_LON DS824_STAGE DS824_WIND DS824_PRES TD9636_LAT TD9636_LON TD9636_STAGE TD9636_WIND TD9636_PRES TD9635_LAT TD9635_LON TD9635_WIND TD9635_PRES TD9635_ROCI NEUMANN_LAT NEUMANN_LON NEUMANN_CLASS NEUMANN_WIND NEUMANN_PRES MLC_LAT MLC_LON MLC_CLASS MLC_WIND MLC_PRES USA_GUST BOM_GUST BOM_GUST_PER REUNION_GUST REUNION_GUST_PER USA_SEAHGT USA_SEARAD_NE USA_SEARAD_SE USA_SEARAD_SW USA_SEARAD_NW STORM_SPEED STORM_DIR
1897268N20277 1897 32 NA CS NOT_NAMED 1897-09-25 00:00:00 TS 19.6000 -82.9000 35 hurdat_atl main 201 191 O_____________ hurdat_atl AL041897 19.6000 -82.9000 TS 35 0 4 305
1897268N20277 1897 32 NA CS NOT_NAMED 1897-09-25 03:00:00 TS 19.7025 -83.0499 main 191 181 P_____________ AL041897 19.7025 -83.0499 TS 35 0 3 305
1897268N20277 1897 32 NA CS NOT_NAMED 1897-09-25 06:00:00 TS 19.8000 -83.2000 35 hurdat_atl main 183 175 O_____________ hurdat_atl AL041897 19.8000 -83.2000 TS 35 0 3 304
1897268N20277 1897 32 NA CS NOT_NAMED 1897-09-25 09:00:00 TS 19.8925 -83.3500 main 178 168 P_____________ AL041897 19.8925 -83.3500 TS 35 0 3 305
1897268N20277 1897 32 NA CS NOT_NAMED 1897-09-25 12:00:00 TS 20.0000 -83.5000 35 hurdat_atl main 172 167 O_____________ hurdat_atl AL041897 20.0000 -83.5000 TS 35 0 4 312
1897268N20277 1897 32 NA CS NOT_NAMED 1897-09-25 15:00:00 TS 20.1500 -83.6575 main 162 157 P_____________ AL041897 20.1500 -83.6575 TS 35 0 4 317
1897268N20277 1897 32 NA CS NOT_NAMED 1897-09-25 18:00:00 TS 20.3000 -83.8000 35 hurdat_atl main 157 154 O_____________ hurdat_atl AL041897 20.3000 -83.8000 TS 35 0 3 318
1897268N20277 1897 32 NA CS NOT_NAMED 1897-09-25 21:00:00 TS 20.4075 -83.9075 main 154 152 P_____________ AL041897 20.4075 -83.9075 TS 35 0 3 317
1897268N20277 1897 32 NA CS NOT_NAMED 1897-09-26 00:00:00 TS 20.5000 -84.0000 35 hurdat_atl main 152 140 O_____________ hurdat_atl AL041897 20.5000 -84.0000 TS 35 0 3 317
1897268N20277 1897 32 NA CS NOT_NAMED 1897-09-26 03:00:00 TS 20.5925 -84.0925 main 140 126 P_____________ AL041897 20.5925 -84.0925 TS 35 0 3 317
1897268N20277 1897 32 NA CS NOT_NAMED 1897-09-26 06:00:00 TS 20.7000 -84.2000 35 hurdat_atl main 126 113 O_____________ hurdat_atl AL041897 20.7000 -84.2000 TS 35 0 3 316
1897268N20277 1897 32 NA CS NOT_NAMED 1897-09-26 09:00:00 TS 20.8350 -84.3425 main 113 89 P_____________ AL041897 20.8350 -84.3425 TS 35 0 4 317
1897268N20277 1897 32 NA CS NOT_NAMED 1897-09-26 12:00:00 TS 21.0000 -84.5000 35 hurdat_atl main 89 67 O_____________ hurdat_atl AL041897 21.0000 -84.5000 TS 35 0 5 321
1897268N20277 1897 32 NA CS NOT_NAMED 1897-09-26 15:00:00 TS 21.1850 -84.6500 main 67 44 P_____________ AL041897 21.1850 -84.6500 TS 35 0 5 325
1897268N20277 1897 32 NA CS NOT_NAMED 1897-09-26 18:00:00 TS 21.4000 -84.8000 35 hurdat_atl main 44 24 O_____________ hurdat_atl AL041897 21.4000 -84.8000 TS 35 0 5 328
1897268N20277 1897 32 NA CS NOT_NAMED 1897-09-26 21:00:00 TS 21.6425 -84.9575 main 30 10 P_____________ AL041897 21.6425 -84.9575 TS 35 0 6 331
1897268N20277 1897 32 NA GM NOT_NAMED 1897-09-27 00:00:00 TS 21.9000 -85.1000 35 hurdat_atl main 10 10 O_____________ hurdat_atl AL041897 21.9000 -85.1000 TS 35 0 6 335
1897268N20277 1897 32 NA GM NOT_NAMED 1897-09-27 03:00:00 TS 22.1425 -85.2076 main 30 30 P_____________ AL041897 22.1425 -85.2076 TS 35 0 5 340
1897268N20277 1897 32 NA GM NOT_NAMED 1897-09-27 06:00:00 TS 22.4000 -85.3000 35 hurdat_atl main 63 63 O_____________ hurdat_atl AL041897 22.4000 -85.3000 TS 35 0 6 341
1897268N20277 1897 32 NA GM NOT_NAMED 1897-09-27 09:00:00 TS 22.6775 -85.4075 main 98 98 P_____________ AL041897 22.6775 -85.4075 TS 37 0 6 343
1897268N20277 1897 32 NA GM NOT_NAMED 1897-09-27 12:00:00 TS 23.0000 -85.5000 40 hurdat_atl main 133 133 O_____________ hurdat_atl AL041897 23.0000 -85.5000 TS 40 0 7 349
1897268N20277 1897 32 NA GM NOT_NAMED 1897-09-27 15:00:00 TS 23.3775 -85.5576 main 173 173 P_____________ AL041897 23.3775 -85.5576 TS 40 0 8 354
1897268N20277 1897 32 NA GM NOT_NAMED 1897-09-27 18:00:00 TS 23.8000 -85.6000 40 hurdat_atl main 203 203 O_____________ hurdat_atl AL041897 23.8000 -85.6000 TS 40 0 9 354
1897268N20277 1897 32 NA GM NOT_NAMED 1897-09-27 21:00:00 TS 24.2575 -85.6649 main 248 248 P_____________ AL041897 24.2575 -85.6649 TS 40 0 9 355
1897268N20277 1897 32 NA GM NOT_NAMED 1897-09-28 00:00:00 TS 24.7000 -85.7000 40 hurdat_atl main 282 282 O_____________ hurdat_atl AL041897 24.7000 -85.7000 TS 40 0 8 0
1897268N20277 1897 32 NA GM NOT_NAMED 1897-09-28 03:00:00 TS 25.0800 -85.6651 main 319 319 P_____________ AL041897 25.0800 -85.6651 TS 40 0 7 7
1897268N20277 1897 32 NA GM NOT_NAMED 1897-09-28 06:00:00 TS 25.4000 -85.6000 40 hurdat_atl main 342 342 O_____________ hurdat_atl AL041897 25.4000 -85.6000 TS 40 0 6 10
1897268N20277 1897 32 NA GM NOT_NAMED 1897-09-28 09:00:00 TS 25.6725 -85.5500 main 339 327 P_____________ AL041897 25.6725 -85.5500 TS 40 0 5 10
1897268N20277 1897 32 NA GM NOT_NAMED 1897-09-28 12:00:00 TS 25.9000 -85.5000 40 hurdat_atl main 327 317 O_____________ hurdat_atl AL041897 25.9000 -85.5000 TS 40 0 5 10
1897268N20277 1897 32 NA GM NOT_NAMED 1897-09-28 15:00:00 TS 26.1150 -85.4575 main 317 299 P_____________ AL041897 26.1150 -85.4575 TS 40 0 4 12
1897268N20277 1897 32 NA GM NOT_NAMED 1897-09-28 18:00:00 TS 26.3000 -85.4000 40 hurdat_atl main 299 282 O_____________ hurdat_atl AL041897 26.3000 -85.4000 TS 40 0 4 19
1897268N20277 1897 32 NA GM NOT_NAMED 1897-09-28 21:00:00 TS 26.4650 -85.3150 main 282 269 P_____________ AL041897 26.4650 -85.3150 TS 40 0 4 30
1897268N20277 1897 32 NA GM NOT_NAMED 1897-09-29 00:00:00 TS 26.6000 -85.2000 40 hurdat_atl main 269 255 O_____________ hurdat_atl AL041897 26.6000 -85.2000 TS 40 0 3 43
1897268N20277 1897 32 NA GM NOT_NAMED 1897-09-29 03:00:00 TS 26.7075 -85.0649 main 255 232 P_____________ AL041897 26.7075 -85.0649 TS 40 0 3 53
1897268N20277 1897 32 NA GM NOT_NAMED 1897-09-29 06:00:00 TS 26.8000 -84.9000 40 hurdat_atl main 232 209 O_____________ hurdat_atl AL041897 26.8000 -84.9000 TS 40 0 4 57
1897268N20277 1897 32 NA GM NOT_NAMED 1897-09-29 09:00:00 TS 26.8999 -84.7299 main 209 187 P_____________ AL041897 26.8999 -84.7299 TS 40 0 4 61
1897268N20277 1897 32 NA GM NOT_NAMED 1897-09-29 12:00:00 TS 27.0000 -84.5000 40 hurdat_atl main 187 156 O_____________ hurdat_atl AL041897 27.0000 -84.5000 TS 40 0 5 68
1897268N20277 1897 32 NA GM NOT_NAMED 1897-09-29 15:00:00 TS 27.1003 -84.1777 main 156 118 P_____________ AL041897 27.1003 -84.1777 TS 37 0 7 72
1897268N20277 1897 32 NA GM NOT_NAMED 1897-09-29 18:00:00 TS 27.2000 -83.8000 35 hurdat_atl main 118 O_____________ hurdat_atl AL041897 27.2000 -83.8000 TS 35 0 7 73

About IBTrACS Database

This database is a web-friendly format of International Best Track Archive for Climate Stewardship (IBTrACS), a global best track data archive curated by NOAA dating back to 1842.

Updated: 2021-10-19